AirNav   Pilot Hours Calculator
 
 442 users online  

12SC Over the Hill Airport
Elgin, South Carolina, USA

GOING TO ELGIN?


FAA INFORMATION EFFECTIVE 05 DECEMBER 2019

Location

FAA Identifier: 12SC
Lat/Long: 34-08-29.0000N 080-44-48.0000W
34-08.483333N 080-44.800000W
34.1413889,-80.7466667
(estimated)
Elevation: 250 ft. / 76 m (estimated)
Variation: 06W (2000)
From city: 5 miles SE of ELGIN, SC
Time zone: UTC -5 (UTC -4 during Daylight Saving Time)
Zip code: 29045

Airport Operations

Airport use: Private use. Permission required prior to landing
Activation date: 07/2002
Control tower: no
ARTCC: JACKSONVILLE CENTER
FSS: ANDERSON FLIGHT SERVICE STATION
Attendance: UNATNDD
Segmented circle: no

Airport Communications

WX AWOS-3 at CDN (12 nm NE): 119.975 (803-424-1979)
WX ASOS at CUB (16 nm SW): 118.675 (803-929-0665)

Nearby radio navigation aids

VOR radial/distance  VOR name  Freq  Var
MMTr020/13.3MC ENTIRE VORTAC113.2008W
CAEr044/22.9COLUMBIA VORTAC114.7002W
CTFr220/38.5CHESTERFIELD VOR/DME108.2003W

 
NDB name  Hdg/Dist  Freq  Var  ID
SUMTER302/21.225207WSMS ... -- ...
HARTSVILLE250/34.934107WHVS .... ...- ...
LANCASTER178/35.340007WLKR .-.. -.- .-.

Airport Services

Runway Information

Runway 9/27

Dimensions: 2000 x 100 ft. / 610 x 30 m
Surface: turf
RUNWAY 9  RUNWAY 27
Traffic pattern: leftleft

Airport Ownership and Management from official FAA records

Ownership: Privately-owned
Owner: DAVID SMITH
P.O. BOX 1204
ELGIN, SC 29045
Phone 803-438-3085
Manager: DAVID SMITH
P.O. BOX 1204
ELGIN, SC 29045
Phone 803-438-3085

Additional Remarks

FOR CD CTC SHAW APCH AT 803-895-4884, WHEN APCH CLSD CTC JACKSONVILLE ARTCC AT 904-845-1592.

Instrument Procedures

There are no published instrument procedures at 12SC.

Some nearby airports with instrument procedures:

KCDN - Woodward Field Airport (12 nm NE)
KMMT - Mc Entire Joint National Guard Base (14 nm S)
KCUB - Jim Hamilton L B Owens Airport (16 nm SW)
KSSC - Shaw Air Force Base (17 nm SE)
KFDW - Fairfield County Airport (21 nm NW)
 
Loc | Ops | Rwys | IFR | FBO | Links
Com | Nav | Svcs | Stats | Notes
Area around 12SC (Over the Hill Airport)
 
Road maps at: MapQuest Bing Google
 
Aerial photo
No photo
 
Sectional chart

 
Airport distance calculator
Flying to Over the Hill Airport? Find the distance to fly.

From to 12SC

Sunrise and sunset
Times for 15-Dec-2019
 Local
(UTC-5)
 Zulu
(UTC)
Morning civil twilight06:5511:55
Sunrise07:2212:22
Sunset17:1422:14
Evening civil twilight17:4222:42

Current date and time
Zulu (UTC)  15-Dec-2019 05:17:43
Local (UTC-5)  15-Dec-2019 00:17:43
 
METAR
KCDN 
12nm NE 
150455Z AUTO 00000KT 10SM CLR 07/04 A2992 RMK AO2
KMMT 
14nm S 
150456Z AUTO 24003KT 10SM CLR 07/05 A2992 RMK AO2 SLP135 T00700045 401480065 $
KSSC 
17nm SE 
150456Z AUTO 26007KT 10SM CLR 07/04 A2992 RMK AO2 SLP134 T00740042 401500072
KFDW 
21nm NW 
150455Z AUTO 26004KT 10SM CLR 06/04 A2991 RMK AO1
KSMS 
21nm SE 
150455Z AUTO 22005KT 10SM CLR 06/05 A2993 RMK AO2
KCAE 
22nm SW 
150456Z 24003KT 10SM FEW220 08/03 A2992 RMK AO2 SLP131 T00780033 401440061
TAF
KMMT 
14nm S 
150010Z 1500/1606 25012KT 9999 SKC 510103 QNH2972INS BECMG 1505/1506 26012KT 9999 SCT090 QNH2993INS BECMG 1602/1603 18006KT 9999 FEW015 SCT045 SCT220 QNH3018INS TX13/1520Z TN05/1512Z
KCUB 
16nm SW 
150301Z 1503/1524 25005KT P6SM SCT040 SCT150 FM151400 23005KT P6SM SKC
NOTAMs
Click for the latest NOTAMs
NOTAMs are issued by the DoD/FAA and will open in a separate window not controlled by AirNav.

 

 
 

Would you like to see your business listed on this page?

 If your business provides an interesting product or service to pilots, flight crews, aircraft, or users of the Over the Hill Airport, you should consider listing it here.  To start the listing process, click on the button below
 
Add a business
 

Other Pages about Over the Hill Airport

Update a link
 
Copyright © AirNav, LLC. All rights reserved. Privacy Policy  Contact